Time;durP1;ratioP1;P1;durP2;ratioP2;P2;SDS_P1;SDS_P2;PMS_P1;PMS_P2;Temp;Humidity;BMP_temperature;BMP_pressure;BME280_temperature;BME280_humidity;BME280_pressure;Samples;Min_cycle;Max_cycle;Signal;HPM_P1;HPM_P2
2023/06/27 02:17:57;;;;;;;;;;;;;;;21.31;41.83;100179.03;1086876;54;20738;-86
2023/06/27 02:20:23;;;;;;;;;;;;;;;21.32;41.95;100180.72;1086075;54;20033;-78
2023/06/27 02:21:24;;;;;;;;;;;;;;;21.34;41.81;100180.50;1086441;47;19954;-79
2023/06/27 02:22:27;;;;;;;;;;;;;;;21.33;41.84;100176.09;1086675;39;20295;-82
2023/06/27 02:23:28;;;;;;;;;;;;;;;21.31;41.61;100175.47;1086208;47;19950;-79
2023/06/27 02:24:31;;;;;;;;;;;;;;;21.32;41.47;100178.00;1086298;54;19958;-79
2023/06/27 02:25:32;;;;;;;;;;;;;;;21.34;41.53;100181.34;1086052;47;19954;-80
2023/06/27 02:26:36;;;;;;;;;;;;;;;21.35;41.77;100179.47;1086389;54;19947;-83
2023/06/27 02:27:36;;;;;;;;;;;;;;;21.33;41.47;100176.97;1086915;47;19942;-81
2023/06/27 02:28:40;;;;;;;;;;;;;;;21.33;41.81;100179.69;1086742;47;19947;-81
2023/06/27 02:29:40;;;;;;;;;;;;;;;21.29;41.70;100178.41;1086683;47;19950;-80
2023/06/27 02:30:44;;;;;;;;;;;;;;;21.26;41.83;100176.13;1086471;54;19942;-82
2023/06/27 02:31:45;;;;;;;;;;;;;;;21.00;42.14;100187.88;1086757;47;19946;-78
2023/06/27 02:32:48;;;;;;;;;;;;;;;20.95;42.33;100179.50;1086734;54;19983;-81
2023/06/27 02:33:51;;;;;;;;;;;;;;;20.96;42.49;100175.75;1086923;47;19950;-81
2023/06/27 02:34:55;;;;;;;;;;;;;;;20.92;42.64;100175.34;1086799;47;19973;-81
2023/06/27 02:35:55;;;;;;;;;;;;;;;20.90;42.51;100180.13;1086909;47;20014;-83
2023/06/27 02:36:59;;;;;;;;;;;;;;;20.87;42.74;100173.25;1086771;47;19949;-80
2023/06/27 02:38:00;;;;;;;;;;;;;;;20.79;42.73;100175.31;1086781;47;19957;-81
2023/06/27 02:39:04;;;;;;;;;;;;;;;20.76;42.85;100173.88;1086868;54;20002;-82
2023/06/27 02:40:08;;;;;;;;;;;;;;;20.72;43.06;100175.31;1086970;47;20663;-81
2023/06/27 02:41:11;;;;;;;;;;;;;;;20.69;43.10;100184.69;1086793;54;19950;-82
2023/06/27 02:42:12;;;;;;;;;;;;;;;20.68;42.83;100184.91;1086574;54;20002;-78
2023/06/27 02:43:16;;;;;;;;;;;;;;;20.60;43.36;100177.78;1085190;47;19950;-80
2023/06/27 09:05:51;;;;;;;;;;;;;;;23.64;33.69;100216.97;1073989;54;19954;31
2023/06/27 09:09:17;;;;;;;;;;;;;;;24.09;33.27;100202.16;1070880;54;19939;31
2023/06/27 09:10:19;;;;;;;;;;;;;;;24.16;32.83;100205.63;1072637;39;21395;31
2023/06/27 09:11:24;;;;;;;;;;;;;;;24.34;32.35;100210.25;1086024;46;21369;31
2023/06/27 09:12:31;;;;;;;;;;;;;;;24.34;31.95;100207.50;1070846;54;20904;31
2023/06/27 09:14:37;;;;;;;;;;;;;;;24.57;31.60;100190.34;1070519;54;19946;31
2023/06/27 09:16:56;;;;;;;;;;;;;;;24.72;31.19;100192.66;1070539;54;19990;31
2023/06/27 09:18:03;;;;;;;;;;;;;;;24.83;31.14;100199.19;1072504;39;20291;-85
2023/06/27 09:19:07;;;;;;;;;;;;;;;24.90;30.57;100191.72;1075379;47;19966;-85
2023/06/27 09:20:12;;;;;;;;;;;;;;;25.09;30.52;100183.41;1070728;46;20455;31
2023/06/27 09:21:19;;;;;;;;;;;;;;;25.28;30.60;100191.47;1071668;39;21458;31
2023/06/27 09:26:57;;;;;;;;;;;;;;;25.16;29.37;100180.56;1070978;54;21474;31
2023/06/27 09:27:59;;;;;;;;;;;;;;;25.00;29.78;100180.22;1072175;39;21431;31
2023/06/27 09:29:09;;;;;;;;;;;;;;;25.25;29.74;100178.31;1082098;54;19927;-85
2023/06/27 09:30:12;;;;;;;;;;;;;;;25.33;28.82;100176.00;1080552;46;19994;-85
2023/06/27 09:31:16;;;;;;;;;;;;;;;25.50;29.08;100178.88;1070699;46;19939;31
2023/06/27 09:32:21;;;;;;;;;;;;;;;25.69;29.21;100179.53;1075386;54;21171;-86
2023/06/27 09:34:40;;;;;;;;;;;;;;;25.45;29.33;100176.06;1078915;39;21186;31
2023/06/27 09:35:44;;;;;;;;;;;;;;;25.73;29.30;100170.84;1077926;54;21045;31
2023/06/27 09:37:52;;;;;;;;;;;;;;;25.16;29.36;100172.34;1088193;54;19975;-82
2023/06/27 09:39:58;;;;;;;;;;;;;;;25.90;29.31;100171.75;1070809;54;19953;-86
2023/06/27 09:42:10;;;;;;;;;;;;;;;25.82;28.93;100183.09;1089309;46;19938;-86
2023/06/27 09:44:21;;;;;;;;;;;;;;;26.00;28.40;100174.69;1083105;54;19949;-84
2023/06/27 09:45:27;;;;;;;;;;;;;;;26.07;28.74;100182.75;1073555;54;21104;31
2023/06/27 09:48:39;;;;;;;;;;;;;;;26.27;28.39;100168.63;1087821;47;20008;-85
2023/06/27 09:50:45;;;;;;;;;;;;;;;26.43;28.04;100177.16;1072044;54;20763;-84
2023/06/27 09:51:49;;;;;;;;;;;;;;;26.26;28.40;100172.44;1070734;54;20941;31
2023/06/27 09:53:57;;;;;;;;;;;;;;;26.30;28.13;100165.41;1070471;54;19930;31
2023/06/27 09:57:26;;;;;;;;;;;;;;;26.49;27.83;100167.94;1074091;46;19952;31
2023/06/27 09:59:32;;;;;;;;;;;;;;;26.55;27.95;100172.41;1070706;54;20887;31
2023/06/27 10:01:45;;;;;;;;;;;;;;;26.20;28.49;100173.44;1084942;31;20384;31
2023/06/27 10:02:48;;;;;;;;;;;;;;;25.63;29.10;100180.53;1078589;46;19938;-85
2023/06/27 10:03:52;;;;;;;;;;;;;;;25.42;28.82;100176.53;1074137;54;19954;31
2023/06/27 10:06:07;;;;;;;;;;;;;;;25.57;29.05;100173.28;1071138;54;19946;-85
2023/06/27 10:07:13;;;;;;;;;;;;;;;25.68;28.94;100169.69;1070907;39;21384;31
2023/06/27 10:08:18;;;;;;;;;;;;;;;25.77;29.15;100163.84;1070669;54;21625;31
2023/06/27 10:09:22;;;;;;;;;;;;;;;25.52;29.11;100165.81;1072147;39;20282;31
2023/06/27 10:12:49;;;;;;;;;;;;;;;25.99;28.76;100156.59;1089736;39;20653;31
2023/06/27 10:14:55;;;;;;;;;;;;;;;25.64;29.18;100162.22;1083411;39;20272;31
2023/06/27 10:17:18;;;;;;;;;;;;;;;25.62;29.14;100159.69;1070691;54;21222;31
2023/06/27 10:18:20;;;;;;;;;;;;;;;25.26;29.61;100152.63;1072070;39;20275;31
2023/06/27 10:19:26;;;;;;;;;;;;;;;24.90;29.90;100163.56;1078244;39;21412;31
2023/06/27 10:20:27;;;;;;;;;;;;;;;24.68;30.48;100169.59;1073973;47;19957;31
2023/06/27 10:21:33;;;;;;;;;;;;;;;24.86;30.22;100174.13;1070520;54;20857;31
2023/06/27 10:22:37;;;;;;;;;;;;;;;24.98;30.47;100165.94;1070542;54;19973;31
2023/06/27 10:23:42;;;;;;;;;;;;;;;25.11;29.87;100174.97;1070897;46;20416;31
2023/06/27 10:27:07;;;;;;;;;;;;;;;24.81;30.10;100165.81;1082357;54;19927;31
2023/06/27 10:30:29;;;;;;;;;;;;;;;24.72;30.46;100170.81;1088421;39;20764;-86
2023/06/27 10:32:46;;;;;;;;;;;;;;;24.59;30.70;100173.69;1088043;54;19934;-85
2023/06/27 10:36:06;;;;;;;;;;;;;;;24.71;30.60;100171.00;1087863;54;19939;-84
2023/06/27 10:37:10;;;;;;;;;;;;;;;25.01;30.17;100170.09;1087797;54;19943;-86
2023/06/27 10:39:26;;;;;;;;;;;;;;;24.75;30.27;100164.84;1087790;54;21134;-84
2023/06/27 10:45:13;;;;;;;;;;;;;;;25.01;30.21;100173.69;1077224;47;20226;-85
2023/06/27 10:46:20;;;;;;;;;;;;;;;25.10;29.95;100163.19;1083312;54;19942;-84
2023/06/27 10:47:38;;;;;;;;;;;;;;;25.10;29.44;100170.56;1087857;54;20013;-86
2023/06/27 10:51:05;;;;;;;;;;;;;;;25.13;29.54;100168.19;1071905;39;20132;31
2023/06/27 10:52:07;;;;;;;;;;;;;;;25.14;29.68;100171.75;1080156;47;19951;-85
2023/06/27 10:53:18;;;;;;;;;;;;;;;25.04;29.88;100169.63;1086392;39;20920;31
2023/06/27 10:54:23;;;;;;;;;;;;;;;25.25;29.47;100167.34;1070839;46;21310;31
2023/06/27 10:55:38;;;;;;;;;;;;;;;25.33;29.32;100167.81;1076662;54;20020;-83
2023/06/27 10:56:40;;;;;;;;;;;;;;;25.29;29.51;100166.63;1087429;47;19939;-84
2023/06/27 11:02:21;;;;;;;;;;;;;;;25.46;29.26;100160.47;1070967;54;20904;31
2023/06/27 11:05:39;;;;;;;;;;;;;;;25.36;29.07;100156.41;1082485;54;19926;31
2023/06/27 11:07:51;;;;;;;;;;;;;;;25.26;29.20;100152.63;1071504;54;21201;31
2023/06/27 11:08:57;;;;;;;;;;;;;;;25.15;29.40;100148.81;1076035;39;21354;31
2023/06/27 11:10:01;;;;;;;;;;;;;;;24.93;29.83;100163.09;1069179;47;19946;31
2023/06/27 11:11:09;;;;;;;;;;;;;;;25.28;29.62;100154.03;1087594;54;19958;-85
2023/06/27 11:13:17;;;;;;;;;;;;;;;25.08;29.34;100166.19;1085887;47;19962;-85
2023/06/27 11:14:34;;;;;;;;;;;;;;;25.01;29.53;100170.09;1075458;39;21640;31
2023/06/27 11:18:10;;;;;;;;;;;;;;;25.46;28.72;100165.94;1069050;54;20404;-85
2023/06/27 11:20:27;;;;;;;;;;;;;;;25.28;29.41;100158.66;1071605;54;20357;-85
2023/06/27 11:21:31;;;;;;;;;;;;;;;25.43;29.33;100161.78;1087520;39;20860;-85
2023/06/27 11:23:39;;;;;;;;;;;;;;;25.01;29.88;100170.09;1072303;54;20035;-87
2023/06/27 11:24:40;;;;;;;;;;;;;;;24.90;29.97;100172.56;1087900;46;19965;-84
2023/06/27 11:25:47;;;;;;;;;;;;;;;24.92;29.89;100177.84;1068900;47;21228;31
2023/06/27 11:26:52;;;;;;;;;;;;;;;25.12;29.65;100171.19;1075904;31;21494;-86
2023/06/27 11:27:58;;;;;;;;;;;;;;;25.25;29.52;100157.25;1082048;54;19946;-84
2023/06/27 11:29:08;;;;;;;;;;;;;;;25.40;29.61;100159.50;1081722;46;19927;-86
2023/06/27 11:31:26;;;;;;;;;;;;;;;25.32;29.45;100157.94;1087699;54;19942;-86
2023/06/27 11:32:27;;;;;;;;;;;;;;;25.13;29.87;100153.69;1087287;47;19938;-84
2023/06/27 11:33:30;;;;;;;;;;;;;;;25.23;29.71;100140.22;1087270;47;19943;-84
2023/06/27 11:34:31;;;;;;;;;;;;;;;25.51;29.28;100141.41;1087453;54;19949;-85
2023/06/27 11:35:38;;;;;;;;;;;;;;;25.56;28.98;100143.41;1087473;47;19923;-85
2023/06/27 11:38:58;;;;;;;;;;;;;;;25.48;29.77;100141.91;1090149;39;20606;-83
2023/06/27 11:40:07;;;;;;;;;;;;;;;25.52;29.70;100141.16;1087461;47;19939;-85
2023/06/27 11:42:13;;;;;;;;;;;;;;;25.38;30.04;100142.47;1085736;54;19942;31
2023/06/27 11:43:16;;;;;;;;;;;;;;;25.30;29.82;100140.94;1079325;47;20880;-85
2023/06/27 11:44:21;;;;;;;;;;;;;;;25.41;30.13;100138.47;1084561;46;19943;31
2023/06/27 11:45:26;;;;;;;;;;;;;;;25.43;29.51;100136.31;1081496;39;20321;-87
2023/06/27 11:47:32;;;;;;;;;;;;;;;25.53;30.01;100137.38;1088555;54;19941;-87
2023/06/27 11:49:43;;;;;;;;;;;;;;;25.78;29.44;100125.25;1068717;39;22051;31
2023/06/27 11:50:52;;;;;;;;;;;;;;;25.93;29.37;100124.72;1072913;39;20546;-85
2023/06/27 11:52:01;;;;;;;;;;;;;;;25.80;29.45;100117.63;1086208;54;19931;-84
2023/06/27 11:54:08;;;;;;;;;;;;;;;25.80;29.38;100122.25;1088609;54;19965;-84
2023/06/27 11:56:26;;;;;;;;;;;;;;;25.37;29.92;100122.50;1070246;39;20231;-83
2023/06/27 11:58:41;;;;;;;;;;;;;;;25.65;29.77;100123.63;1086509;54;19939;-82
2023/06/27 12:02:01;;;;;;;;;;;;;;;25.26;30.25;100115.13;1088332;46;19938;-85
2023/06/27 12:04:09;;;;;;;;;;;;;;;25.18;30.06;100119.06;1072867;54;20391;-85
2023/06/27 12:05:13;;;;;;;;;;;;;;;25.22;30.11;100113.97;1087725;47;19945;-84
2023/06/27 12:06:27;;;;;;;;;;;;;;;25.07;30.52;100109.81;1087783;54;19995;-85
2023/06/27 12:08:35;;;;;;;;;;;;;;;25.42;29.82;100112.75;1068372;54;19977;31
2023/06/27 12:09:40;;;;;;;;;;;;;;;25.53;29.83;100104.53;1075270;39;21244;31
2023/06/27 12:11:53;;;;;;;;;;;;;;;25.47;29.95;100107.41;1088590;54;19943;-83
2023/06/27 12:12:56;;;;;;;;;;;;;;;25.44;30.31;100107.88;1070000;39;21241;31
2023/06/27 12:14:00;;;;;;;;;;;;;;;25.57;30.17;100113.09;1075172;46;19949;31
2023/06/27 12:15:14;;;;;;;;;;;;;;;25.47;29.91;100108.22;1088169;46;19939;-86
2023/06/27 12:16:27;;;;;;;;;;;;;;;25.41;30.00;100108.38;1089940;39;20547;-84
2023/06/27 12:19:53;;;;;;;;;;;;;;;25.07;30.56;100109.81;1088468;54;19930;-83
2023/06/27 12:20:58;;;;;;;;;;;;;;;25.40;30.13;100118.47;1087872;47;19939;-85
2023/06/27 12:23:04;;;;;;;;;;;;;;;25.42;30.19;100110.84;1088367;54;19930;-84
2023/06/27 12:24:12;;;;;;;;;;;;;;;24.89;30.79;100115.41;1087555;39;20848;-84
2023/06/27 12:29:01;;;;;;;;;;;;;;;25.04;30.89;100093.06;1088574;54;19922;-86
2023/06/27 12:30:06;;;;;;;;;;;;;;;25.01;31.30;100097.13;1081029;46;19927;-85
2023/06/27 12:31:15;;;;;;;;;;;;;;;24.97;31.08;100095.91;1085894;47;19949;-84
2023/06/27 12:32:18;;;;;;;;;;;;;;;24.83;31.09;100099.97;1078296;31;20884;31
2023/06/27 12:34:30;;;;;;;;;;;;;;;25.20;31.50;100086.03;1068373;54;19954;31
2023/06/27 12:35:34;;;;;;;;;;;;;;;25.44;30.71;100083.25;1072308;54;20894;31
2023/06/27 12:36:39;;;;;;;;;;;;;;;25.51;30.31;100076.56;1088544;46;19974;-86
2023/06/27 12:38:44;;;;;;;;;;;;;;;25.40;29.65;100082.91;1088551;54;19958;-85
2023/06/27 12:39:47;;;;;;;;;;;;;;;25.31;29.23;100082.44;1084576;39;20944;31
2023/06/27 12:40:52;;;;;;;;;;;;;;;25.14;29.79;100086.97;1069437;46;19969;31
2023/06/27 12:43:11;;;;;;;;;;;;;;;25.18;29.94;100088.16;1076797;54;21267;31
2023/06/27 12:44:19;;;;;;;;;;;;;;;25.33;29.74;100080.28;1070586;54;19958;-86
2023/06/27 12:47:32;;;;;;;;;;;;;;;25.42;29.82;100077.19;1088525;54;19939;-86
2023/06/27 12:48:37;;;;;;;;;;;;;;;25.56;29.13;100067.63;1082638;46;19939;31
2023/06/27 12:49:39;;;;;;;;;;;;;;;25.66;28.83;100073.31;1076162;54;20806;-82
2023/06/27 12:50:43;;;;;;;;;;;;;;;25.67;29.19;100071.38;1073222;47;20041;31
2023/06/27 12:51:45;;;;;;;;;;;;;;;25.65;29.19;100065.31;1076735;54;21133;31
2023/06/27 12:52:50;;;;;;;;;;;;;;;25.69;29.35;100066.50;1069065;46;19969;31
2023/06/27 12:53:55;;;;;;;;;;;;;;;25.69;29.35;100067.31;1068686;54;20351;31
2023/06/27 12:55:03;;;;;;;;;;;;;;;25.64;29.28;100069.97;1069328;31;22041;31
2023/06/27 12:58:37;;;;;;;;;;;;;;;25.67;29.57;100055.81;1088783;39;20641;-84
2023/06/27 12:59:44;;;;;;;;;;;;;;;25.64;29.49;100059.03;1073732;39;21416;31
2023/06/27 13:00:48;;;;;;;;;;;;;;;25.29;29.46;100057.22;1068467;54;19946;31
2023/06/27 13:01:57;;;;;;;;;;;;;;;25.29;29.61;100057.22;1085172;47;19958;-85
2023/06/27 13:04:11;;;;;;;;;;;;;;;25.68;29.15;100051.16;1084151;39;21285;-84
2023/06/27 13:07:59;;;;;;;;;;;;;;;25.42;29.57;100047.09;1076699;54;19930;-84
2023/06/27 13:09:05;;;;;;;;;;;;;;;25.58;29.78;100049.06;1067479;47;20835;31
2023/06/27 13:12:13;;;;;;;;;;;;;;;25.00;30.95;100048.97;1079770;47;19977;-86
2023/06/27 13:14:19;;;;;;;;;;;;;;;25.27;30.61;100047.59;1068357;54;20925;31
2023/06/27 13:15:24;;;;;;;;;;;;;;;25.33;30.21;100044.72;1069715;39;20234;31
2023/06/27 13:16:32;;;;;;;;;;;;;;;25.57;29.97;100041.94;1079433;54;19981;31
2023/06/27 13:18:49;;;;;;;;;;;;;;;25.49;29.51;100036.84;1079426;46;21016;31
2023/06/27 13:19:53;;;;;;;;;;;;;;;25.47;28.96;100037.06;1088637;39;20653;-85
2023/06/27 13:23:12;;;;;;;;;;;;;;;25.79;28.14;100038.50;1087791;47;19943;-85
2023/06/27 13:24:15;;;;;;;;;;;;;;;25.92;28.11;100035.44;1087890;54;19969;-85
2023/06/27 13:25:20;;;;;;;;;;;;;;;25.99;27.92;100027.06;1089874;39;20810;-86
2023/06/27 13:27:29;;;;;;;;;;;;;;;25.55;28.66;100035.84;1080218;54;20005;-86
2023/06/27 13:30:49;;;;;;;;;;;;;;;25.57;28.51;100041.94;1073122;54;20258;31
2023/06/27 13:33:13;;;;;;;;;;;;;;;25.47;28.18;100030.78;1085451;54;19938;-84
2023/06/27 13:35:35;;;;;;;;;;;;;;;25.85;28.19;100026.56;1088393;54;19950;-85
2023/06/27 13:36:36;;;;;;;;;;;;;;;25.68;28.55;100026.50;1088209;54;19942;-83
2023/06/27 13:38:41;;;;;;;;;;;;;;;25.81;28.54;100020.75;1088862;54;19919;-85
2023/06/27 13:39:51;;;;;;;;;;;;;;;25.88;28.81;100037.03;1078321;46;19942;-84
2023/06/27 13:40:56;;;;;;;;;;;;;;;25.86;29.30;100033.69;1077962;47;20026;-87
2023/06/27 13:48:00;;;;;;;;;;;;;;;25.10;29.83;100025.66;1078801;46;21411;31
2023/06/27 13:52:35;;;;;;;;;;;;;;;25.68;29.12;100026.50;1068721;54;19946;31
2023/06/27 13:53:42;;;;;;;;;;;;;;;25.83;29.00;100015.88;1068830;47;21508;31
2023/06/27 13:54:47;;;;;;;;;;;;;;;25.96;29.08;100011.97;1068914;47;20941;31
2023/06/27 13:55:49;;;;;;;;;;;;;;;25.85;28.80;100010.13;1069993;46;20929;31
2023/06/27 13:57:55;;;;;;;;;;;;;;;26.01;28.66;100014.78;1068240;54;20068;31
2023/06/27 14:00:01;;;;;;;;;;;;;;;26.11;28.64;100019.66;1078747;46;20809;31
2023/06/27 14:02:08;;;;;;;;;;;;;;;26.10;28.38;100017.13;1068098;54;20064;31
2023/06/27 14:03:33;;;;;;;;;;;;;;;26.22;28.58;100015.16;1068109;47;19972;31
2023/06/27 14:04:37;;;;;;;;;;;;;;;26.27;28.65;100019.88;1068025;47;20401;31
2023/06/27 14:05:41;;;;;;;;;;;;;;;26.08;28.41;100013.78;1067852;54;20004;31
2023/06/27 14:06:51;;;;;;;;;;;;;;;25.95;28.91;100012.19;1068379;47;19947;31
2023/06/27 14:07:57;;;;;;;;;;;;;;;26.04;28.79;100023.59;1068606;46;19946;31
2023/06/27 14:09:03;;;;;;;;;;;;;;;25.64;29.04;100012.50;1068441;54;20721;31
2023/06/27 14:10:06;;;;;;;;;;;;;;;25.41;29.30;100010.69;1068262;54;19946;31
2023/06/27 14:11:13;;;;;;;;;;;;;;;25.54;29.24;100023.25;1068772;39;20230;31
2023/06/27 14:12:19;;;;;;;;;;;;;;;25.67;29.05;100006.53;1068134;46;19993;31
2023/06/27 14:13:23;;;;;;;;;;;;;;;25.62;29.24;100011.91;1068402;54;19954;31
2023/06/27 14:14:27;;;;;;;;;;;;;;;25.46;29.40;100016.25;1068470;46;21186;31
2023/06/27 14:15:30;;;;;;;;;;;;;;;25.47;29.38;100017.91;1068264;54;19998;31
2023/06/27 14:17:37;;;;;;;;;;;;;;;25.49;29.59;100018.50;1067976;54;21428;31
2023/06/27 14:18:43;;;;;;;;;;;;;;;25.63;29.21;100008.09;1082068;47;20362;31
2023/06/27 14:20:52;;;;;;;;;;;;;;;25.42;29.69;100006.03;1088391;54;19919;-85
2023/06/27 14:21:54;;;;;;;;;;;;;;;25.42;29.77;100017.00;1068620;54;19954;31
2023/06/27 14:24:11;;;;;;;;;;;;;;;25.37;29.86;100018.53;1068451;54;20892;31
2023/06/27 14:25:14;;;;;;;;;;;;;;;25.09;30.14;100022.06;1068546;54;19947;31
2023/06/27 14:26:19;;;;;;;;;;;;;;;24.96;30.26;100017.69;1068636;54;19942;31
2023/06/27 14:27:21;;;;;;;;;;;;;;;24.88;30.69;100012.59;1068662;46;19954;31
2023/06/27 14:28:26;;;;;;;;;;;;;;;25.04;30.06;100025.53;1068367;54;20904;31
2023/06/27 14:29:29;;;;;;;;;;;;;;;25.18;30.35;100022.53;1068435;39;20853;31
2023/06/27 14:31:34;;;;;;;;;;;;;;;25.03;30.28;100014.84;1087347;54;20027;-82
2023/06/27 14:32:35;;;;;;;;;;;;;;;25.12;30.53;100016.13;1089238;39;20209;-85
2023/06/27 14:33:38;;;;;;;;;;;;;;;25.13;30.38;100020.50;1086821;47;19946;-83
2023/06/27 14:34:39;;;;;;;;;;;;;;;25.14;30.21;100004.94;1087747;39;20259;-85
2023/06/27 14:35:42;;;;;;;;;;;;;;;25.08;30.25;100018.50;1086674;47;19945;-83
2023/06/27 14:37:51;;;;;;;;;;;;;;;25.14;29.92;100005.78;1068661;54;21648;31
2023/06/27 14:38:57;;;;;;;;;;;;;;;25.17;29.74;100004.44;1068862;46;21999;31
2023/06/27 14:40:03;;;;;;;;;;;;;;;25.32;29.53;100006.66;1068489;54;19973;31
2023/06/27 14:41:08;;;;;;;;;;;;;;;25.44;29.84;100003.91;1070106;39;21416;31
2023/06/27 14:43:19;;;;;;;;;;;;;;;25.16;29.93;99998.16;1088901;54;19919;-85
2023/06/27 14:45:25;;;;;;;;;;;;;;;25.04;29.79;99998.19;1068123;46;21141;31
2023/06/27 14:46:35;;;;;;;;;;;;;;;25.20;29.49;100001.25;1068076;54;20527;31
2023/06/27 14:47:38;;;;;;;;;;;;;;;25.34;29.51;99994.41;1067732;47;20001;31
2023/06/27 14:48:43;;;;;;;;;;;;;;;25.45;29.31;100002.81;1068192;46;21459;31
2023/06/27 14:49:45;;;;;;;;;;;;;;;25.23;29.43;99996.13;1067773;46;19992;31
2023/06/27 14:51:58;;;;;;;;;;;;;;;24.87;30.15;100005.47;1068775;39;21425;31
2023/06/27 14:53:00;;;;;;;;;;;;;;;25.13;29.67;99997.81;1066800;54;20005;31
2023/06/27 14:54:04;;;;;;;;;;;;;;;25.25;29.56;100000.50;1067607;46;19953;31
2023/06/27 14:55:12;;;;;;;;;;;;;;;25.29;29.58;99999.78;1067875;54;20798;31
2023/06/27 14:57:20;;;;;;;;;;;;;;;25.24;29.79;99999.66;1089035;54;19930;-90
2023/06/27 14:58:26;;;;;;;;;;;;;;;25.16;29.88;99998.16;1067644;46;19954;31
2023/06/27 15:01:35;;;;;;;;;;;;;;;25.29;29.92;99985.25;1068926;39;22011;31
2023/06/27 15:05:59;;;;;;;;;;;;;;;25.10;30.35;99992.81;1068124;39;21243;31
2023/06/27 15:07:01;;;;;;;;;;;;;;;25.16;29.85;99992.69;1067729;54;20013;31
2023/06/27 15:09:06;;;;;;;;;;;;;;;24.85;30.33;99980.28;1088785;54;19934;-88
2023/06/27 15:11:17;;;;;;;;;;;;;;;25.05;30.25;99988.91;1067650;54;20807;31
2023/06/27 15:13:26;;;;;;;;;;;;;;;25.19;30.43;99985.91;1067701;54;20807;31
2023/06/27 15:14:32;;;;;;;;;;;;;;;25.21;30.28;99981.03;1067421;54;19942;31
2023/06/27 15:15:38;;;;;;;;;;;;;;;25.27;30.21;99984.69;1068175;47;19961;31
2023/06/27 15:16:40;;;;;;;;;;;;;;;25.23;30.50;99984.31;1067635;54;21179;31
2023/06/27 15:17:45;;;;;;;;;;;;;;;25.19;30.58;99980.44;1067801;46;19980;31
2023/06/27 15:18:49;;;;;;;;;;;;;;;25.23;30.47;99976.13;1067785;54;20829;31
2023/06/27 15:19:56;;;;;;;;;;;;;;;25.34;30.13;99985.38;1067648;47;20017;31
2023/06/27 15:20:59;;;;;;;;;;;;;;;25.33;30.23;99980.97;1067963;54;20733;31
2023/06/27 15:22:03;;;;;;;;;;;;;;;25.37;30.06;99974.75;1068034;47;20217;31
2023/06/27 15:23:08;;;;;;;;;;;;;;;25.28;30.04;99972.66;1067842;47;21231;31
2023/06/27 15:24:13;;;;;;;;;;;;;;;25.06;30.38;99979.63;1068080;54;20905;31
2023/06/27 15:25:20;;;;;;;;;;;;;;;25.13;30.37;99976.75;1068009;54;20873;31
2023/06/27 15:27:42;;;;;;;;;;;;;;;24.88;30.80;99979.81;1067691;54;19950;31
2023/06/27 15:28:45;;;;;;;;;;;;;;;24.70;31.10;99976.16;1067843;54;19976;31
2023/06/27 15:29:50;;;;;;;;;;;;;;;24.91;30.89;99973.88;1068786;39;21942;31
2023/06/27 15:30:52;;;;;;;;;;;;;;;25.03;30.72;99971.91;1068059;47;20840;31
2023/06/27 15:33:10;;;;;;;;;;;;;;;25.26;30.83;99974.81;1087136;54;19942;-81
2023/06/27 15:34:11;;;;;;;;;;;;;;;25.30;30.86;99971.34;1087208;54;19943;-83
2023/06/27 15:35:15;;;;;;;;;;;;;;;25.29;30.60;99961.47;1086782;54;19946;-83
2023/06/27 15:36:15;;;;;;;;;;;;;;;25.21;30.71;99961.88;1086737;47;19939;-84
2023/06/27 15:37:19;;;;;;;;;;;;;;;25.08;30.61;99974.75;1086633;47;19961;-83
2023/06/27 15:38:20;;;;;;;;;;;;;;;25.04;30.62;99967.28;1086712;54;20066;-82
2023/06/27 15:39:23;;;;;;;;;;;;;;;24.93;30.85;99971.72;1089689;39;20220;-83
2023/06/27 15:40:26;;;;;;;;;;;;;;;24.80;30.83;99961.88;1086722;47;19963;-82
2023/06/27 15:41:27;;;;;;;;;;;;;;;24.95;30.66;99961.34;1086708;47;19946;-81
2023/06/27 15:42:31;;;;;;;;;;;;;;;25.10;30.91;99960.00;1086655;54;19943;-82
2023/06/27 15:43:35;;;;;;;;;;;;;;;25.18;30.94;99951.41;1089473;39;20886;-83
2023/06/27 15:44:39;;;;;;;;;;;;;;;25.15;30.98;99958.22;1086605;47;19938;-86
2023/06/27 15:45:43;;;;;;;;;;;;;;;25.23;30.78;99954.25;1086557;47;19973;-82
2023/06/27 15:46:44;;;;;;;;;;;;;;;25.33;30.38;99953.63;1086592;54;19942;-82
2023/06/27 15:47:47;;;;;;;;;;;;;;;25.44;30.69;99957.38;1086632;54;19949;-84
2023/06/27 15:48:48;;;;;;;;;;;;;;;25.51;30.21;99956.16;1086670;54;19998;-82
2023/06/27 15:49:51;;;;;;;;;;;;;;;25.51;30.41;99952.59;1086596;47;19945;-82
2023/06/27 15:50:52;;;;;;;;;;;;;;;25.30;30.52;99954.94;1086829;54;19943;-82
2023/06/27 15:51:55;;;;;;;;;;;;;;;25.30;30.68;99954.94;1086697;54;19942;-84
2023/06/27 15:52:59;;;;;;;;;;;;;;;25.42;30.68;99956.78;1086557;47;19945;-83
2023/06/27 15:54:00;;;;;;;;;;;;;;;25.43;30.70;99955.72;1088036;39;20985;-85
2023/06/27 15:55:03;;;;;;;;;;;;;;;25.29;31.00;99956.00;1086569;47;19943;-82
2023/06/27 15:56:04;;;;;;;;;;;;;;;25.21;31.20;99950.94;1087409;39;21159;-83
2023/06/27 15:57:08;;;;;;;;;;;;;;;25.27;31.02;99949.13;1086481;47;19965;-82
2023/06/27 15:58:09;;;;;;;;;;;;;;;25.31;31.18;99956.59;1086609;47;19938;-81
2023/06/27 15:59:16;;;;;;;;;;;;;;;25.14;31.35;99966.63;1086806;54;20006;-82
2023/06/27 16:00:18;;;;;;;;;;;;;;;25.03;31.49;99954.69;1086739;47;19938;-82
2023/06/27 16:01:21;;;;;;;;;;;;;;;24.88;31.43;99960.66;1086659;54;19942;-81
2023/06/27 16:02:25;;;;;;;;;;;;;;;24.69;31.95;99960.00;1086734;47;19939;-83
2023/06/27 16:03:26;;;;;;;;;;;;;;;24.57;31.69;99954.50;1086560;54;19942;-83
2023/06/27 16:04:29;;;;;;;;;;;;;;;24.58;32.21;99950.72;1087203;31;20825;-82
2023/06/27 16:05:31;;;;;;;;;;;;;;;24.64;31.76;99954.38;1086529;47;19938;-82
2023/06/27 16:06:35;;;;;;;;;;;;;;;24.57;32.14;99949.03;1086452;47;20018;-83
2023/06/27 16:07:36;;;;;;;;;;;;;;;24.63;32.12;99955.44;1086565;54;19942;-82
2023/06/27 16:08:39;;;;;;;;;;;;;;;24.76;31.95;99945.13;1086647;54;19969;-83
2023/06/27 16:09:40;;;;;;;;;;;;;;;24.85;31.90;99942.00;1086597;47;19938;-83
2023/06/27 16:10:44;;;;;;;;;;;;;;;24.97;31.54;99947.47;1086673;47;19938;-81
2023/06/27 16:11:45;;;;;;;;;;;;;;;25.02;31.61;99937.47;1086691;47;19965;-81
2023/06/27 16:12:48;;;;;;;;;;;;;;;25.12;31.53;99941.47;1087189;54;20223;-83
2023/06/27 16:13:49;;;;;;;;;;;;;;;25.20;31.18;99939.16;1086724;47;19964;-82
2023/06/27 16:14:55;;;;;;;;;;;;;;;25.22;31.13;99937.00;1086822;54;19969;-84
2023/06/27 16:15:56;;;;;;;;;;;;;;;25.20;31.34;99938.34;1086546;47;19939;-84
2023/06/27 16:16:59;;;;;;;;;;;;;;;25.25;30.97;99938.41;1086557;54;19981;-84
2023/06/27 16:18:00;;;;;;;;;;;;;;;25.21;30.94;99934.53;1086579;54;19968;-82
2023/06/27 16:19:04;;;;;;;;;;;;;;;25.25;30.91;99934.88;1086531;47;19939;-81
2023/06/27 16:20:05;;;;;;;;;;;;;;;25.30;30.71;99935.78;1086590;47;19938;-83
2023/06/27 16:21:09;;;;;;;;;;;;;;;25.30;30.81;99941.25;1086419;47;20333;-82
2023/06/27 16:22:09;;;;;;;;;;;;;;;25.38;30.89;99935.41;1086471;54;19947;-83
2023/06/27 16:23:13;;;;;;;;;;;;;;;25.12;31.33;99934.06;1086562;54;20003;-84
2023/06/27 16:24:13;;;;;;;;;;;;;;;24.99;31.48;99937.09;1086405;47;19939;-80
2023/06/27 16:25:17;;;;;;;;;;;;;;;25.08;31.32;99933.75;1086544;54;19957;-82
2023/06/27 16:26:18;;;;;;;;;;;;;;;25.17;30.85;99933.34;1086500;54;20359;-84
2023/06/27 16:28:25;;;;;;;;;;;;;;;25.10;31.23;99930.75;1079286;54;20016;31
2023/06/27 16:30:34;;;;;;;;;;;;;;;24.87;31.14;99934.41;1075201;54;20001;31
2023/06/27 16:31:36;;;;;;;;;;;;;;;24.78;31.16;99931.22;1082957;46;19967;-85
2023/06/27 16:32:41;;;;;;;;;;;;;;;24.77;31.40;99929.56;1074955;47;19981;31
2023/06/27 16:33:45;;;;;;;;;;;;;;;24.87;31.27;99928.94;1067647;47;20535;31
2023/06/27 16:34:51;;;;;;;;;;;;;;;24.99;30.95;99927.00;1067925;54;19947;31
2023/06/27 16:38:04;;;;;;;;;;;;;;;24.91;31.00;99930.13;1087570;54;19938;-82
2023/06/27 16:39:05;;;;;;;;;;;;;;;24.69;31.47;99927.22;1087063;47;19939;-81